sensor_id;sensor_type;location;lat;lon;timestamp;P1;durP1;ratioP1;P2;durP2;ratioP2
22172;SDS011;11252;50.596;17.648;2022-12-18T00:01:29;63.20;;;29.27;;
22172;SDS011;11252;50.596;17.648;2022-12-18T00:04:01;65.53;;;29.97;;
22172;SDS011;11252;50.596;17.648;2022-12-18T00:06:34;68.77;;;29.43;;
22172;SDS011;11252;50.596;17.648;2022-12-18T00:09:02;66.73;;;29.53;;
22172;SDS011;11252;50.596;17.648;2022-12-18T00:11:30;63.93;;;29.17;;
22172;SDS011;11252;50.596;17.648;2022-12-18T00:13:58;62.97;;;30.13;;
22172;SDS011;11252;50.596;17.648;2022-12-18T00:16:27;68.20;;;30.37;;
22172;SDS011;11252;50.596;17.648;2022-12-18T00:18:56;66.30;;;30.53;;
22172;SDS011;11252;50.596;17.648;2022-12-18T00:21:27;67.03;;;29.20;;
22172;SDS011;11252;50.596;17.648;2022-12-18T00:23:55;66.63;;;30.17;;
22172;SDS011;11252;50.596;17.648;2022-12-18T00:26:30;66.00;;;29.87;;
22172;SDS011;11252;50.596;17.648;2022-12-18T00:29:00;67.77;;;30.77;;
22172;SDS011;11252;50.596;17.648;2022-12-18T00:31:30;66.00;;;30.67;;
22172;SDS011;11252;50.596;17.648;2022-12-18T00:33:58;59.00;;;28.23;;
22172;SDS011;11252;50.596;17.648;2022-12-18T00:36:27;69.33;;;28.93;;
22172;SDS011;11252;50.596;17.648;2022-12-18T00:38:57;64.07;;;28.40;;
22172;SDS011;11252;50.596;17.648;2022-12-18T00:41:25;60.93;;;29.20;;
22172;SDS011;11252;50.596;17.648;2022-12-18T00:44:13;63.00;;;29.00;;
22172;SDS011;11252;50.596;17.648;2022-12-18T00:46:41;67.53;;;29.13;;
22172;SDS011;11252;50.596;17.648;2022-12-18T00:49:10;61.40;;;27.50;;
22172;SDS011;11252;50.596;17.648;2022-12-18T00:51:40;59.30;;;26.27;;
22172;SDS011;11252;50.596;17.648;2022-12-18T00:54:10;59.33;;;26.87;;
22172;SDS011;11252;50.596;17.648;2022-12-18T00:56:38;58.10;;;26.03;;
22172;SDS011;11252;50.596;17.648;2022-12-18T00:59:14;63.60;;;28.17;;
22172;SDS011;11252;50.596;17.648;2022-12-18T01:01:42;59.27;;;28.23;;
22172;SDS011;11252;50.596;17.648;2022-12-18T01:04:09;57.93;;;27.40;;
22172;SDS011;11252;50.596;17.648;2022-12-18T01:06:37;58.47;;;26.63;;
22172;SDS011;11252;50.596;17.648;2022-12-18T01:09:05;61.33;;;27.70;;
22172;SDS011;11252;50.596;17.648;2022-12-18T01:11:33;65.17;;;29.07;;
22172;SDS011;11252;50.596;17.648;2022-12-18T01:14:00;61.13;;;27.43;;
22172;SDS011;11252;50.596;17.648;2022-12-18T01:16:27;58.97;;;28.03;;
22172;SDS011;11252;50.596;17.648;2022-12-18T01:18:55;59.53;;;27.80;;
22172;SDS011;11252;50.596;17.648;2022-12-18T01:21:22;62.70;;;27.60;;
22172;SDS011;11252;50.596;17.648;2022-12-18T01:23:51;62.27;;;28.53;;
22172;SDS011;11252;50.596;17.648;2022-12-18T01:26:20;59.97;;;28.63;;
22172;SDS011;11252;50.596;17.648;2022-12-18T01:28:48;57.73;;;27.30;;
22172;SDS011;11252;50.596;17.648;2022-12-18T01:31:22;59.47;;;29.77;;
22172;SDS011;11252;50.596;17.648;2022-12-18T01:33:51;63.10;;;29.40;;
22172;SDS011;11252;50.596;17.648;2022-12-18T01:36:23;64.37;;;30.00;;
22172;SDS011;11252;50.596;17.648;2022-12-18T01:38:52;66.57;;;29.77;;
22172;SDS011;11252;50.596;17.648;2022-12-18T01:41:22;66.27;;;28.37;;
22172;SDS011;11252;50.596;17.648;2022-12-18T01:46:19;66.10;;;30.50;;
22172;SDS011;11252;50.596;17.648;2022-12-18T01:48:48;61.43;;;28.80;;
22172;SDS011;11252;50.596;17.648;2022-12-18T01:51:19;60.97;;;28.10;;
22172;SDS011;11252;50.596;17.648;2022-12-18T01:53:46;59.37;;;28.50;;
22172;SDS011;11252;50.596;17.648;2022-12-18T01:56:15;59.90;;;26.87;;
22172;SDS011;11252;50.596;17.648;2022-12-18T02:01:23;65.73;;;29.60;;
22172;SDS011;11252;50.596;17.648;2022-12-18T02:03:51;61.13;;;28.73;;
22172;SDS011;11252;50.596;17.648;2022-12-18T02:06:29;65.07;;;30.20;;
22172;SDS011;11252;50.596;17.648;2022-12-18T02:09:11;62.83;;;29.73;;
22172;SDS011;11252;50.596;17.648;2022-12-18T02:14:50;63.13;;;29.93;;
22172;SDS011;11252;50.596;17.648;2022-12-18T02:17:21;62.13;;;27.73;;
22172;SDS011;11252;50.596;17.648;2022-12-18T02:19:57;56.20;;;28.60;;
22172;SDS011;11252;50.596;17.648;2022-12-18T02:27:41;70.10;;;29.53;;
22172;SDS011;11252;50.596;17.648;2022-12-18T02:30:10;66.70;;;29.80;;
22172;SDS011;11252;50.596;17.648;2022-12-18T02:32:39;62.63;;;29.87;;
22172;SDS011;11252;50.596;17.648;2022-12-18T02:35:13;65.30;;;29.33;;
22172;SDS011;11252;50.596;17.648;2022-12-18T02:37:48;66.03;;;30.37;;
22172;SDS011;11252;50.596;17.648;2022-12-18T02:40:15;67.40;;;30.87;;
22172;SDS011;11252;50.596;17.648;2022-12-18T02:42:44;66.90;;;31.80;;
22172;SDS011;11252;50.596;17.648;2022-12-18T02:45:12;67.00;;;30.33;;
22172;SDS011;11252;50.596;17.648;2022-12-18T02:47:40;66.73;;;27.97;;
22172;SDS011;11252;50.596;17.648;2022-12-18T02:50:22;65.43;;;30.13;;
22172;SDS011;11252;50.596;17.648;2022-12-18T02:56:08;66.23;;;29.07;;
22172;SDS011;11252;50.596;17.648;2022-12-18T02:59:00;64.77;;;30.73;;
22172;SDS011;11252;50.596;17.648;2022-12-18T03:04:16;69.43;;;29.90;;
22172;SDS011;11252;50.596;17.648;2022-12-18T03:06:59;62.20;;;28.90;;
22172;SDS011;11252;50.596;17.648;2022-12-18T03:09:33;65.70;;;29.00;;
22172;SDS011;11252;50.596;17.648;2022-12-18T03:12:09;64.63;;;29.10;;
22172;SDS011;11252;50.596;17.648;2022-12-18T03:17:48;72.40;;;32.07;;
22172;SDS011;11252;50.596;17.648;2022-12-18T03:20:24;65.37;;;29.30;;
22172;SDS011;11252;50.596;17.648;2022-12-18T03:22:55;61.60;;;27.70;;
22172;SDS011;11252;50.596;17.648;2022-12-18T03:25:37;65.17;;;28.20;;
22172;SDS011;11252;50.596;17.648;2022-12-18T03:28:09;67.03;;;29.60;;
22172;SDS011;11252;50.596;17.648;2022-12-18T03:30:43;68.80;;;30.80;;
22172;SDS011;11252;50.596;17.648;2022-12-18T03:33:24;62.20;;;27.00;;
22172;SDS011;11252;50.596;17.648;2022-12-18T03:35:56;60.80;;;29.20;;
22172;SDS011;11252;50.596;17.648;2022-12-18T03:38:23;64.30;;;29.47;;
22172;SDS011;11252;50.596;17.648;2022-12-18T03:43:57;67.93;;;31.63;;
22172;SDS011;11252;50.596;17.648;2022-12-18T03:49:40;79.90;;;37.93;;
22172;SDS011;11252;50.596;17.648;2022-12-18T03:52:18;57.67;;;29.80;;
22172;SDS011;11252;50.596;17.648;2022-12-18T03:54:54;67.63;;;31.10;;
22172;SDS011;11252;50.596;17.648;2022-12-18T03:57:25;60.70;;;29.60;;
22172;SDS011;11252;50.596;17.648;2022-12-18T03:59:56;60.63;;;29.13;;
22172;SDS011;11252;50.596;17.648;2022-12-18T04:02:27;69.33;;;28.63;;
22172;SDS011;11252;50.596;17.648;2022-12-18T04:04:57;63.10;;;29.03;;
22172;SDS011;11252;50.596;17.648;2022-12-18T04:07:29;63.23;;;27.30;;
22172;SDS011;11252;50.596;17.648;2022-12-18T04:09:57;55.17;;;26.60;;
22172;SDS011;11252;50.596;17.648;2022-12-18T04:12:28;58.83;;;29.60;;
22172;SDS011;11252;50.596;17.648;2022-12-18T04:14:56;65.17;;;29.30;;
22172;SDS011;11252;50.596;17.648;2022-12-18T04:17:24;61.83;;;28.73;;
22172;SDS011;11252;50.596;17.648;2022-12-18T04:19:51;56.90;;;26.63;;
22172;SDS011;11252;50.596;17.648;2022-12-18T04:22:18;59.83;;;27.37;;
22172;SDS011;11252;50.596;17.648;2022-12-18T04:24:45;59.80;;;27.87;;
22172;SDS011;11252;50.596;17.648;2022-12-18T04:27:13;57.03;;;27.57;;
22172;SDS011;11252;50.596;17.648;2022-12-18T04:29:41;59.53;;;28.77;;
22172;SDS011;11252;50.596;17.648;2022-12-18T04:32:08;59.90;;;27.47;;
22172;SDS011;11252;50.596;17.648;2022-12-18T04:34:36;59.90;;;26.40;;
22172;SDS011;11252;50.596;17.648;2022-12-18T04:37:03;62.77;;;27.43;;
22172;SDS011;11252;50.596;17.648;2022-12-18T04:39:30;56.63;;;27.83;;
22172;SDS011;11252;50.596;17.648;2022-12-18T04:42:01;60.07;;;26.27;;
22172;SDS011;11252;50.596;17.648;2022-12-18T04:44:28;56.77;;;26.77;;
22172;SDS011;11252;50.596;17.648;2022-12-18T04:46:55;63.50;;;28.57;;
22172;SDS011;11252;50.596;17.648;2022-12-18T04:49:22;61.70;;;30.03;;
22172;SDS011;11252;50.596;17.648;2022-12-18T04:51:50;62.23;;;30.87;;
22172;SDS011;11252;50.596;17.648;2022-12-18T04:54:20;62.30;;;28.10;;
22172;SDS011;11252;50.596;17.648;2022-12-18T04:56:48;57.93;;;29.27;;
22172;SDS011;11252;50.596;17.648;2022-12-18T04:59:16;65.97;;;29.53;;
22172;SDS011;11252;50.596;17.648;2022-12-18T05:01:43;63.80;;;31.37;;
22172;SDS011;11252;50.596;17.648;2022-12-18T05:04:12;60.80;;;30.10;;
22172;SDS011;11252;50.596;17.648;2022-12-18T05:06:39;62.57;;;31.77;;
22172;SDS011;11252;50.596;17.648;2022-12-18T05:09:07;67.80;;;33.87;;
22172;SDS011;11252;50.596;17.648;2022-12-18T05:11:35;74.57;;;35.00;;
22172;SDS011;11252;50.596;17.648;2022-12-18T05:14:02;73.87;;;36.07;;
22172;SDS011;11252;50.596;17.648;2022-12-18T05:16:30;67.07;;;33.27;;
22172;SDS011;11252;50.596;17.648;2022-12-18T05:18:58;63.90;;;30.87;;
22172;SDS011;11252;50.596;17.648;2022-12-18T05:21:25;71.70;;;32.20;;
22172;SDS011;11252;50.596;17.648;2022-12-18T05:23:52;62.67;;;31.43;;
22172;SDS011;11252;50.596;17.648;2022-12-18T05:26:20;66.70;;;33.43;;
22172;SDS011;11252;50.596;17.648;2022-12-18T05:28:47;62.30;;;31.53;;
22172;SDS011;11252;50.596;17.648;2022-12-18T05:31:15;61.20;;;32.07;;
22172;SDS011;11252;50.596;17.648;2022-12-18T05:33:42;58.80;;;29.77;;
22172;SDS011;11252;50.596;17.648;2022-12-18T05:36:12;62.77;;;30.13;;
22172;SDS011;11252;50.596;17.648;2022-12-18T05:38:40;71.77;;;36.67;;
22172;SDS011;11252;50.596;17.648;2022-12-18T05:41:07;79.23;;;38.73;;
22172;SDS011;11252;50.596;17.648;2022-12-18T05:43:36;76.63;;;38.90;;
22172;SDS011;11252;50.596;17.648;2022-12-18T05:46:07;105.50;;;53.87;;
22172;SDS011;11252;50.596;17.648;2022-12-18T05:48:37;110.90;;;56.80;;
22172;SDS011;11252;50.596;17.648;2022-12-18T05:51:09;93.80;;;50.03;;
22172;SDS011;11252;50.596;17.648;2022-12-18T05:53:39;50.00;;;24.93;;
22172;SDS011;11252;50.596;17.648;2022-12-18T05:56:11;50.87;;;25.53;;
22172;SDS011;11252;50.596;17.648;2022-12-18T05:58:46;61.27;;;29.23;;
22172;SDS011;11252;50.596;17.648;2022-12-18T06:01:18;65.87;;;31.43;;
22172;SDS011;11252;50.596;17.648;2022-12-18T06:03:47;85.30;;;39.10;;
22172;SDS011;11252;50.596;17.648;2022-12-18T06:06:20;63.67;;;30.33;;
22172;SDS011;11252;50.596;17.648;2022-12-18T06:08:49;121.83;;;58.13;;
22172;SDS011;11252;50.596;17.648;2022-12-18T06:11:18;216.10;;;109.10;;
22172;SDS011;11252;50.596;17.648;2022-12-18T06:13:50;231.90;;;114.93;;
22172;SDS011;11252;50.596;17.648;2022-12-18T06:16:24;135.97;;;64.63;;
22172;SDS011;11252;50.596;17.648;2022-12-18T06:18:56;111.67;;;52.70;;
22172;SDS011;11252;50.596;17.648;2022-12-18T06:21:26;171.67;;;81.60;;
22172;SDS011;11252;50.596;17.648;2022-12-18T06:23:53;140.43;;;65.77;;
22172;SDS011;11252;50.596;17.648;2022-12-18T06:26:21;77.00;;;38.93;;
22172;SDS011;11252;50.596;17.648;2022-12-18T06:28:53;72.67;;;34.90;;
22172;SDS011;11252;50.596;17.648;2022-12-18T06:31:21;65.37;;;33.40;;
22172;SDS011;11252;50.596;17.648;2022-12-18T06:33:48;68.80;;;34.67;;
22172;SDS011;11252;50.596;17.648;2022-12-18T06:36:17;79.33;;;38.67;;
22172;SDS011;11252;50.596;17.648;2022-12-18T06:38:46;100.20;;;46.23;;
22172;SDS011;11252;50.596;17.648;2022-12-18T06:41:14;92.37;;;43.13;;
22172;SDS011;11252;50.596;17.648;2022-12-18T06:43:43;181.97;;;79.00;;
22172;SDS011;11252;50.596;17.648;2022-12-18T06:46:11;157.77;;;73.37;;
22172;SDS011;11252;50.596;17.648;2022-12-18T06:48:39;129.20;;;59.03;;
22172;SDS011;11252;50.596;17.648;2022-12-18T06:51:06;174.10;;;87.10;;
22172;SDS011;11252;50.596;17.648;2022-12-18T06:53:34;137.67;;;65.07;;
22172;SDS011;11252;50.596;17.648;2022-12-18T06:56:02;112.60;;;54.00;;
22172;SDS011;11252;50.596;17.648;2022-12-18T06:58:36;122.23;;;61.60;;
22172;SDS011;11252;50.596;17.648;2022-12-18T07:01:05;159.43;;;89.77;;
22172;SDS011;11252;50.596;17.648;2022-12-18T07:03:34;133.67;;;73.40;;
22172;SDS011;11252;50.596;17.648;2022-12-18T07:06:03;92.20;;;49.33;;
22172;SDS011;11252;50.596;17.648;2022-12-18T07:08:30;60.77;;;31.83;;
22172;SDS011;11252;50.596;17.648;2022-12-18T07:10:58;77.43;;;40.30;;
22172;SDS011;11252;50.596;17.648;2022-12-18T07:13:26;70.03;;;38.97;;
22172;SDS011;11252;50.596;17.648;2022-12-18T07:15:53;157.13;;;69.50;;
22172;SDS011;11252;50.596;17.648;2022-12-18T07:18:20;70.93;;;35.07;;
22172;SDS011;11252;50.596;17.648;2022-12-18T07:20:47;67.80;;;37.07;;
22172;SDS011;11252;50.596;17.648;2022-12-18T07:23:15;235.33;;;94.13;;
22172;SDS011;11252;50.596;17.648;2022-12-18T07:25:42;649.70;;;358.47;;
22172;SDS011;11252;50.596;17.648;2022-12-18T07:28:09;133.17;;;66.57;;
22172;SDS011;11252;50.596;17.648;2022-12-18T07:30:42;85.43;;;43.87;;
22172;SDS011;11252;50.596;17.648;2022-12-18T07:33:10;96.30;;;46.83;;
22172;SDS011;11252;50.596;17.648;2022-12-18T07:35:37;188.13;;;95.93;;
22172;SDS011;11252;50.596;17.648;2022-12-18T07:38:04;73.97;;;37.80;;
22172;SDS011;11252;50.596;17.648;2022-12-18T07:40:32;94.17;;;47.70;;
22172;SDS011;11252;50.596;17.648;2022-12-18T07:42:59;79.97;;;39.00;;
22172;SDS011;11252;50.596;17.648;2022-12-18T07:45:27;75.90;;;33.67;;
22172;SDS011;11252;50.596;17.648;2022-12-18T07:47:57;79.20;;;40.87;;
22172;SDS011;11252;50.596;17.648;2022-12-18T07:50:24;65.77;;;33.53;;
22172;SDS011;11252;50.596;17.648;2022-12-18T07:52:52;67.47;;;30.40;;
22172;SDS011;11252;50.596;17.648;2022-12-18T07:55:19;89.60;;;45.57;;
22172;SDS011;11252;50.596;17.648;2022-12-18T07:57:46;93.07;;;46.87;;
22172;SDS011;11252;50.596;17.648;2022-12-18T08:00:17;74.17;;;32.80;;
22172;SDS011;11252;50.596;17.648;2022-12-18T08:02:44;83.93;;;38.57;;
22172;SDS011;11252;50.596;17.648;2022-12-18T08:05:13;83.37;;;41.73;;
22172;SDS011;11252;50.596;17.648;2022-12-18T08:07:41;83.47;;;40.97;;
22172;SDS011;11252;50.596;17.648;2022-12-18T08:10:08;68.00;;;33.37;;
22172;SDS011;11252;50.596;17.648;2022-12-18T08:12:36;77.77;;;40.60;;
22172;SDS011;11252;50.596;17.648;2022-12-18T08:15:03;96.97;;;48.07;;
22172;SDS011;11252;50.596;17.648;2022-12-18T08:17:31;201.10;;;98.20;;
22172;SDS011;11252;50.596;17.648;2022-12-18T08:19:59;119.67;;;57.07;;
22172;SDS011;11252;50.596;17.648;2022-12-18T08:22:26;72.43;;;36.17;;
22172;SDS011;11252;50.596;17.648;2022-12-18T08:24:54;169.47;;;60.20;;
22172;SDS011;11252;50.596;17.648;2022-12-18T08:27:21;240.80;;;91.80;;
22172;SDS011;11252;50.596;17.648;2022-12-18T08:29:56;174.73;;;67.27;;
22172;SDS011;11252;50.596;17.648;2022-12-18T08:32:24;160.27;;;64.13;;
22172;SDS011;11252;50.596;17.648;2022-12-18T08:34:53;76.97;;;36.03;;
22172;SDS011;11252;50.596;17.648;2022-12-18T08:37:20;90.77;;;37.03;;
22172;SDS011;11252;50.596;17.648;2022-12-18T08:39:48;179.70;;;70.27;;
22172;SDS011;11252;50.596;17.648;2022-12-18T08:42:15;210.87;;;85.50;;
22172;SDS011;11252;50.596;17.648;2022-12-18T08:45:01;279.83;;;98.20;;
22172;SDS011;11252;50.596;17.648;2022-12-18T08:47:30;117.93;;;50.50;;
22172;SDS011;11252;50.596;17.648;2022-12-18T08:49:57;145.53;;;52.70;;
22172;SDS011;11252;50.596;17.648;2022-12-18T08:52:25;96.83;;;47.63;;
22172;SDS011;11252;50.596;17.648;2022-12-18T08:54:52;135.47;;;61.33;;
22172;SDS011;11252;50.596;17.648;2022-12-18T08:57:19;156.70;;;65.73;;
22172;SDS011;11252;50.596;17.648;2022-12-18T08:59:47;147.27;;;54.63;;
22172;SDS011;11252;50.596;17.648;2022-12-18T09:02:14;88.20;;;41.23;;
22172;SDS011;11252;50.596;17.648;2022-12-18T09:04:42;169.80;;;68.10;;
22172;SDS011;11252;50.596;17.648;2022-12-18T09:07:12;253.43;;;93.60;;
22172;SDS011;11252;50.596;17.648;2022-12-18T09:09:39;109.70;;;45.27;;
22172;SDS011;11252;50.596;17.648;2022-12-18T09:12:06;136.07;;;55.23;;
22172;SDS011;11252;50.596;17.648;2022-12-18T09:14:34;131.73;;;57.77;;
22172;SDS011;11252;50.596;17.648;2022-12-18T09:17:02;224.10;;;84.90;;
22172;SDS011;11252;50.596;17.648;2022-12-18T09:19:30;187.13;;;71.20;;
22172;SDS011;11252;50.596;17.648;2022-12-18T09:21:58;161.97;;;62.27;;
22172;SDS011;11252;50.596;17.648;2022-12-18T09:24:25;267.87;;;93.57;;
22172;SDS011;11252;50.596;17.648;2022-12-18T09:26:53;186.40;;;69.93;;
22172;SDS011;11252;50.596;17.648;2022-12-18T09:29:23;135.27;;;59.10;;
22172;SDS011;11252;50.596;17.648;2022-12-18T09:31:50;171.37;;;77.07;;
22172;SDS011;11252;50.596;17.648;2022-12-18T09:34:18;81.60;;;35.37;;
22172;SDS011;11252;50.596;17.648;2022-12-18T09:36:47;117.30;;;55.60;;
22172;SDS011;11252;50.596;17.648;2022-12-18T09:39:15;61.40;;;27.70;;
22172;SDS011;11252;50.596;17.648;2022-12-18T09:41:56;73.13;;;35.97;;
22172;SDS011;11252;50.596;17.648;2022-12-18T09:44:26;133.03;;;57.40;;
22172;SDS011;11252;50.596;17.648;2022-12-18T09:49:28;126.63;;;57.57;;
22172;SDS011;11252;50.596;17.648;2022-12-18T09:52:03;79.63;;;40.57;;
22172;SDS011;11252;50.596;17.648;2022-12-18T09:54:39;99.87;;;43.43;;
22172;SDS011;11252;50.596;17.648;2022-12-18T09:57:13;87.40;;;36.90;;
22172;SDS011;11252;50.596;17.648;2022-12-18T09:59:46;134.43;;;61.13;;
22172;SDS011;11252;50.596;17.648;2022-12-18T10:02:22;180.60;;;88.57;;
22172;SDS011;11252;50.596;17.648;2022-12-18T10:13:16;198.50;;;74.50;;
22172;SDS011;11252;50.596;17.648;2022-12-18T10:16:02;116.67;;;46.83;;
22172;SDS011;11252;50.596;17.648;2022-12-18T10:21:36;86.63;;;37.43;;
22172;SDS011;11252;50.596;17.648;2022-12-18T10:26:35;125.57;;;56.30;;
22172;SDS011;11252;50.596;17.648;2022-12-18T10:29:07;130.57;;;55.53;;
22172;SDS011;11252;50.596;17.648;2022-12-18T10:31:39;171.17;;;72.37;;
22172;SDS011;11252;50.596;17.648;2022-12-18T10:34:13;174.73;;;75.87;;
22172;SDS011;11252;50.596;17.648;2022-12-18T10:36:40;149.77;;;58.37;;
22172;SDS011;11252;50.596;17.648;2022-12-18T10:39:17;100.67;;;44.27;;
22172;SDS011;11252;50.596;17.648;2022-12-18T10:41:47;102.10;;;45.83;;
22172;SDS011;11252;50.596;17.648;2022-12-18T10:44:17;120.70;;;54.07;;
22172;SDS011;11252;50.596;17.648;2022-12-18T10:46:47;152.30;;;79.03;;
22172;SDS011;11252;50.596;17.648;2022-12-18T10:49:47;82.73;;;37.23;;
22172;SDS011;11252;50.596;17.648;2022-12-18T10:52:20;66.20;;;31.77;;
22172;SDS011;11252;50.596;17.648;2022-12-18T10:54:52;82.43;;;38.97;;
22172;SDS011;11252;50.596;17.648;2022-12-18T10:59:55;75.90;;;36.27;;
22172;SDS011;11252;50.596;17.648;2022-12-18T11:02:34;77.67;;;38.97;;
22172;SDS011;11252;50.596;17.648;2022-12-18T11:05:11;68.50;;;33.13;;
22172;SDS011;11252;50.596;17.648;2022-12-18T11:07:56;128.77;;;54.17;;
22172;SDS011;11252;50.596;17.648;2022-12-18T11:10:34;142.67;;;65.30;;
22172;SDS011;11252;50.596;17.648;2022-12-18T11:13:20;189.93;;;74.30;;
22172;SDS011;11252;50.596;17.648;2022-12-18T11:15:49;92.17;;;39.50;;
22172;SDS011;11252;50.596;17.648;2022-12-18T11:20:56;93.60;;;40.97;;
22172;SDS011;11252;50.596;17.648;2022-12-18T11:23:26;167.60;;;69.70;;
22172;SDS011;11252;50.596;17.648;2022-12-18T11:25:55;88.10;;;38.23;;
22172;SDS011;11252;50.596;17.648;2022-12-18T11:28:38;117.37;;;47.47;;
22172;SDS011;11252;50.596;17.648;2022-12-18T11:31:24;121.87;;;56.70;;
22172;SDS011;11252;50.596;17.648;2022-12-18T11:36:44;209.93;;;86.87;;
22172;SDS011;11252;50.596;17.648;2022-12-18T11:39:24;270.93;;;100.40;;
22172;SDS011;11252;50.596;17.648;2022-12-18T11:43:01;169.97;;;64.57;;
22172;SDS011;11252;50.596;17.648;2022-12-18T11:45:25;132.73;;;58.50;;
22172;SDS011;11252;50.596;17.648;2022-12-18T11:47:57;211.70;;;82.93;;
22172;SDS011;11252;50.596;17.648;2022-12-18T11:53:07;99.23;;;45.20;;
22172;SDS011;11252;50.596;17.648;2022-12-18T12:01:50;127.53;;;60.87;;
22172;SDS011;11252;50.596;17.648;2022-12-18T12:12:43;90.33;;;40.60;;
22172;SDS011;11252;50.596;17.648;2022-12-18T12:15:26;86.97;;;41.97;;
22172;SDS011;11252;50.596;17.648;2022-12-18T12:18:28;78.10;;;36.83;;
22172;SDS011;11252;50.596;17.648;2022-12-18T12:21:15;143.20;;;59.67;;
22172;SDS011;11252;50.596;17.648;2022-12-18T12:24:02;137.30;;;61.77;;
22172;SDS011;11252;50.596;17.648;2022-12-18T12:29:55;130.23;;;56.33;;
22172;SDS011;11252;50.596;17.648;2022-12-18T12:32:45;250.87;;;114.97;;
22172;SDS011;11252;50.596;17.648;2022-12-18T12:38:05;120.80;;;56.37;;
22172;SDS011;11252;50.596;17.648;2022-12-18T12:40:51;314.13;;;138.50;;
22172;SDS011;11252;50.596;17.648;2022-12-18T12:43:47;298.37;;;124.67;;
22172;SDS011;11252;50.596;17.648;2022-12-18T12:46:17;184.47;;;72.63;;
22172;SDS011;11252;50.596;17.648;2022-12-18T12:48:49;203.73;;;89.40;;
22172;SDS011;11252;50.596;17.648;2022-12-18T12:54:15;241.50;;;125.40;;
22172;SDS011;11252;50.596;17.648;2022-12-18T12:59:20;229.73;;;113.23;;
22172;SDS011;11252;50.596;17.648;2022-12-18T13:02:18;132.00;;;59.97;;
22172;SDS011;11252;50.596;17.648;2022-12-18T13:05:19;126.97;;;57.23;;
22172;SDS011;11252;50.596;17.648;2022-12-18T13:08:06;100.23;;;47.67;;
22172;SDS011;11252;50.596;17.648;2022-12-18T13:10:37;122.17;;;55.77;;
22172;SDS011;11252;50.596;17.648;2022-12-18T13:15:40;169.30;;;72.73;;
22172;SDS011;11252;50.596;17.648;2022-12-18T13:18:15;330.07;;;112.27;;
22172;SDS011;11252;50.596;17.648;2022-12-18T13:23:29;105.20;;;49.23;;
22172;SDS011;11252;50.596;17.648;2022-12-18T13:34:12;96.97;;;46.57;;
22172;SDS011;11252;50.596;17.648;2022-12-18T13:36:54;108.73;;;51.70;;
22172;SDS011;11252;50.596;17.648;2022-12-18T13:39:25;113.30;;;54.17;;
22172;SDS011;11252;50.596;17.648;2022-12-18T13:44:32;92.83;;;45.30;;
22172;SDS011;11252;50.596;17.648;2022-12-18T13:47:54;117.20;;;54.80;;
22172;SDS011;11252;50.596;17.648;2022-12-18T13:50:01;87.20;;;43.80;;
22172;SDS011;11252;50.596;17.648;2022-12-18T13:52:37;95.23;;;41.50;;
22172;SDS011;11252;50.596;17.648;2022-12-18T13:55:10;98.53;;;43.83;;
22172;SDS011;11252;50.596;17.648;2022-12-18T13:57:46;99.30;;;46.03;;
22172;SDS011;11252;50.596;17.648;2022-12-18T14:02:55;117.97;;;52.43;;
22172;SDS011;11252;50.596;17.648;2022-12-18T14:05:28;97.93;;;44.37;;
22172;SDS011;11252;50.596;17.648;2022-12-18T14:08:10;81.77;;;36.10;;
22172;SDS011;11252;50.596;17.648;2022-12-18T14:10:42;139.33;;;61.53;;
22172;SDS011;11252;50.596;17.648;2022-12-18T14:13:19;125.30;;;52.83;;
22172;SDS011;11252;50.596;17.648;2022-12-18T14:15:54;132.90;;;64.50;;
22172;SDS011;11252;50.596;17.648;2022-12-18T14:18:30;110.17;;;49.10;;
22172;SDS011;11252;50.596;17.648;2022-12-18T14:21:05;116.10;;;48.23;;
22172;SDS011;11252;50.596;17.648;2022-12-18T14:23:41;112.73;;;49.10;;
22172;SDS011;11252;50.596;17.648;2022-12-18T14:26:25;131.43;;;59.70;;
22172;SDS011;11252;50.596;17.648;2022-12-18T14:28:56;116.17;;;52.70;;
22172;SDS011;11252;50.596;17.648;2022-12-18T14:31:29;129.40;;;55.33;;
22172;SDS011;11252;50.596;17.648;2022-12-18T14:33:58;99.47;;;45.03;;
22172;SDS011;11252;50.596;17.648;2022-12-18T14:36:27;107.53;;;52.20;;
22172;SDS011;11252;50.596;17.648;2022-12-18T14:38:56;133.83;;;58.00;;
22172;SDS011;11252;50.596;17.648;2022-12-18T14:41:27;197.43;;;80.57;;
22172;SDS011;11252;50.596;17.648;2022-12-18T14:43:56;189.97;;;80.27;;
22172;SDS011;11252;50.596;17.648;2022-12-18T14:46:37;180.23;;;73.47;;
22172;SDS011;11252;50.596;17.648;2022-12-18T14:51:42;238.13;;;96.67;;
22172;SDS011;11252;50.596;17.648;2022-12-18T14:54:21;236.37;;;96.50;;
22172;SDS011;11252;50.596;17.648;2022-12-18T14:57:00;197.37;;;79.40;;
22172;SDS011;11252;50.596;17.648;2022-12-18T14:59:32;188.53;;;82.03;;
22172;SDS011;11252;50.596;17.648;2022-12-18T15:04:59;226.07;;;102.10;;
22172;SDS011;11252;50.596;17.648;2022-12-18T15:07:38;437.23;;;180.77;;
22172;SDS011;11252;50.596;17.648;2022-12-18T15:10:12;743.10;;;315.43;;
22172;SDS011;11252;50.596;17.648;2022-12-18T15:20:55;432.87;;;176.77;;
22172;SDS011;11252;50.596;17.648;2022-12-18T15:23:44;328.37;;;141.17;;
22172;SDS011;11252;50.596;17.648;2022-12-18T15:26:19;293.10;;;130.07;;
22172;SDS011;11252;50.596;17.648;2022-12-18T15:28:55;288.03;;;130.87;;
22172;SDS011;11252;50.596;17.648;2022-12-18T15:31:29;234.97;;;106.70;;
22172;SDS011;11252;50.596;17.648;2022-12-18T15:34:08;223.80;;;102.57;;
22172;SDS011;11252;50.596;17.648;2022-12-18T15:36:38;266.07;;;118.10;;
22172;SDS011;11252;50.596;17.648;2022-12-18T15:39:09;328.60;;;147.40;;
22172;SDS011;11252;50.596;17.648;2022-12-18T15:41:38;264.67;;;119.20;;
22172;SDS011;11252;50.596;17.648;2022-12-18T15:44:39;348.43;;;156.00;;
22172;SDS011;11252;50.596;17.648;2022-12-18T15:47:00;299.23;;;143.07;;
22172;SDS011;11252;50.596;17.648;2022-12-18T15:49:27;231.97;;;105.77;;
22172;SDS011;11252;50.596;17.648;2022-12-18T15:51:56;221.50;;;105.17;;
22172;SDS011;11252;50.596;17.648;2022-12-18T15:54:26;200.17;;;90.80;;
22172;SDS011;11252;50.596;17.648;2022-12-18T15:57:12;180.37;;;86.10;;
22172;SDS011;11252;50.596;17.648;2022-12-18T15:59:56;197.30;;;92.93;;
22172;SDS011;11252;50.596;17.648;2022-12-18T16:02:24;242.50;;;105.73;;
22172;SDS011;11252;50.596;17.648;2022-12-18T16:04:53;221.90;;;100.83;;
22172;SDS011;11252;50.596;17.648;2022-12-18T16:07:21;223.60;;;101.63;;
22172;SDS011;11252;50.596;17.648;2022-12-18T16:09:50;243.60;;;107.73;;
22172;SDS011;11252;50.596;17.648;2022-12-18T16:12:21;222.40;;;101.10;;
22172;SDS011;11252;50.596;17.648;2022-12-18T16:14:51;206.97;;;94.70;;
22172;SDS011;11252;50.596;17.648;2022-12-18T16:17:18;305.77;;;129.07;;
22172;SDS011;11252;50.596;17.648;2022-12-18T16:19:46;206.27;;;88.93;;
22172;SDS011;11252;50.596;17.648;2022-12-18T16:22:20;177.40;;;79.23;;
22172;SDS011;11252;50.596;17.648;2022-12-18T16:24:50;150.57;;;63.20;;